sensor_id;sensor_type;location;lat;lon;timestamp;P1;durP1;ratioP1;P2;durP2;ratioP2
5801;SDS011;2927;49.366;8.530;2024-02-15T00:00:04;20.83;;;12.23;;
5801;SDS011;2927;49.366;8.530;2024-02-15T00:02:33;8.13;;;6.13;;
5801;SDS011;2927;49.366;8.530;2024-02-15T00:04:58;7.97;;;4.27;;
5801;SDS011;2927;49.366;8.530;2024-02-15T00:07:24;5.33;;;3.90;;
5801;SDS011;2927;49.366;8.530;2024-02-15T00:09:49;8.90;;;3.73;;
5801;SDS011;2927;49.366;8.530;2024-02-15T00:12:15;6.03;;;3.93;;
5801;SDS011;2927;49.366;8.530;2024-02-15T00:14:41;3.40;;;3.10;;
5801;SDS011;2927;49.366;8.530;2024-02-15T00:17:07;4.03;;;3.43;;
5801;SDS011;2927;49.366;8.530;2024-02-15T00:19:33;6.77;;;3.80;;
5801;SDS011;2927;49.366;8.530;2024-02-15T00:21:59;4.10;;;3.57;;
5801;SDS011;2927;49.366;8.530;2024-02-15T00:24:24;6.60;;;3.83;;
5801;SDS011;2927;49.366;8.530;2024-02-15T00:26:50;7.73;;;4.30;;
5801;SDS011;2927;49.366;8.530;2024-02-15T00:29:16;5.23;;;4.50;;
5801;SDS011;2927;49.366;8.530;2024-02-15T00:31:44;8.87;;;5.40;;
5801;SDS011;2927;49.366;8.530;2024-02-15T00:34:10;9.23;;;6.00;;
5801;SDS011;2927;49.366;8.530;2024-02-15T00:36:36;14.63;;;8.90;;
5801;SDS011;2927;49.366;8.530;2024-02-15T00:39:02;9.40;;;7.17;;
5801;SDS011;2927;49.366;8.530;2024-02-15T00:41:31;19.83;;;11.03;;
5801;SDS011;2927;49.366;8.530;2024-02-15T00:43:58;14.00;;;9.20;;
5801;SDS011;2927;49.366;8.530;2024-02-15T00:46:24;10.97;;;7.53;;
5801;SDS011;2927;49.366;8.530;2024-02-15T00:48:54;4.93;;;3.90;;
5801;SDS011;2927;49.366;8.530;2024-02-15T00:51:20;6.60;;;3.90;;
5801;SDS011;2927;49.366;8.530;2024-02-15T00:53:46;8.23;;;4.80;;
5801;SDS011;2927;49.366;8.530;2024-02-15T00:56:12;4.10;;;3.70;;
5801;SDS011;2927;49.366;8.530;2024-02-15T00:58:37;7.53;;;3.83;;
5801;SDS011;2927;49.366;8.530;2024-02-15T01:01:03;7.43;;;4.60;;
5801;SDS011;2927;49.366;8.530;2024-02-15T01:03:29;10.80;;;4.60;;
5801;SDS011;2927;49.366;8.530;2024-02-15T01:05:55;4.37;;;3.67;;
5801;SDS011;2927;49.366;8.530;2024-02-15T01:08:21;5.63;;;3.83;;
5801;SDS011;2927;49.366;8.530;2024-02-15T01:10:47;9.90;;;5.37;;
5801;SDS011;2927;49.366;8.530;2024-02-15T01:13:12;6.00;;;5.33;;
5801;SDS011;2927;49.366;8.530;2024-02-15T01:15:38;8.60;;;5.53;;
5801;SDS011;2927;49.366;8.530;2024-02-15T01:18:06;6.00;;;4.60;;
5801;SDS011;2927;49.366;8.530;2024-02-15T01:20:31;4.50;;;3.80;;
5801;SDS011;2927;49.366;8.530;2024-02-15T01:22:57;6.70;;;4.40;;
5801;SDS011;2927;49.366;8.530;2024-02-15T01:25:22;6.50;;;4.20;;
5801;SDS011;2927;49.366;8.530;2024-02-15T01:27:48;7.10;;;3.90;;
5801;SDS011;2927;49.366;8.530;2024-02-15T01:30:14;10.07;;;3.77;;
5801;SDS011;2927;49.366;8.530;2024-02-15T01:32:39;4.77;;;4.33;;
5801;SDS011;2927;49.366;8.530;2024-02-15T01:35:07;5.30;;;4.17;;
5801;SDS011;2927;49.366;8.530;2024-02-15T01:37:35;8.27;;;5.70;;
5801;SDS011;2927;49.366;8.530;2024-02-15T01:40:01;11.00;;;6.40;;
5801;SDS011;2927;49.366;8.530;2024-02-15T01:42:27;10.73;;;6.20;;
5801;SDS011;2927;49.366;8.530;2024-02-15T01:44:53;7.20;;;5.23;;
5801;SDS011;2927;49.366;8.530;2024-02-15T01:47:19;8.47;;;5.60;;
5801;SDS011;2927;49.366;8.530;2024-02-15T01:49:45;7.30;;;5.20;;
5801;SDS011;2927;49.366;8.530;2024-02-15T01:52:13;13.27;;;7.10;;
5801;SDS011;2927;49.366;8.530;2024-02-15T01:54:42;10.23;;;5.73;;
5801;SDS011;2927;49.366;8.530;2024-02-15T01:57:08;7.70;;;3.97;;
5801;SDS011;2927;49.366;8.530;2024-02-15T01:59:33;4.90;;;4.40;;
5801;SDS011;2927;49.366;8.530;2024-02-15T02:01:59;7.53;;;4.90;;
5801;SDS011;2927;49.366;8.530;2024-02-15T02:04:26;8.03;;;4.30;;
5801;SDS011;2927;49.366;8.530;2024-02-15T02:06:52;6.10;;;4.80;;
5801;SDS011;2927;49.366;8.530;2024-02-15T02:09:23;4.57;;;3.90;;
5801;SDS011;2927;49.366;8.530;2024-02-15T02:11:49;4.60;;;4.20;;
5801;SDS011;2927;49.366;8.530;2024-02-15T02:14:15;5.40;;;4.27;;
5801;SDS011;2927;49.366;8.530;2024-02-15T02:16:41;8.90;;;4.80;;
5801;SDS011;2927;49.366;8.530;2024-02-15T02:19:07;5.50;;;3.77;;
5801;SDS011;2927;49.366;8.530;2024-02-15T02:21:34;8.10;;;4.90;;
5801;SDS011;2927;49.366;8.530;2024-02-15T02:24:02;4.60;;;3.70;;
5801;SDS011;2927;49.366;8.530;2024-02-15T02:26:32;3.90;;;3.60;;
5801;SDS011;2927;49.366;8.530;2024-02-15T02:28:59;4.37;;;3.93;;
5801;SDS011;2927;49.366;8.530;2024-02-15T02:31:28;9.07;;;4.00;;
5801;SDS011;2927;49.366;8.530;2024-02-15T02:33:54;9.10;;;4.00;;
5801;SDS011;2927;49.366;8.530;2024-02-15T02:36:20;11.23;;;5.70;;
5801;SDS011;2927;49.366;8.530;2024-02-15T02:38:46;7.50;;;4.70;;
5801;SDS011;2927;49.366;8.530;2024-02-15T02:41:14;7.10;;;5.03;;
5801;SDS011;2927;49.366;8.530;2024-02-15T02:43:40;4.33;;;3.90;;
5801;SDS011;2927;49.366;8.530;2024-02-15T02:46:06;5.27;;;4.20;;
5801;SDS011;2927;49.366;8.530;2024-02-15T02:48:35;5.03;;;4.00;;
5801;SDS011;2927;49.366;8.530;2024-02-15T02:51:01;5.80;;;4.57;;
5801;SDS011;2927;49.366;8.530;2024-02-15T02:53:27;6.30;;;4.30;;
5801;SDS011;2927;49.366;8.530;2024-02-15T02:55:53;9.47;;;5.40;;
5801;SDS011;2927;49.366;8.530;2024-02-15T02:58:21;6.53;;;4.70;;
5801;SDS011;2927;49.366;8.530;2024-02-15T03:00:48;6.27;;;4.37;;
5801;SDS011;2927;49.366;8.530;2024-02-15T03:03:14;8.23;;;5.13;;
5801;SDS011;2927;49.366;8.530;2024-02-15T03:05:40;5.40;;;4.90;;
5801;SDS011;2927;49.366;8.530;2024-02-15T03:08:08;4.73;;;4.30;;
5801;SDS011;2927;49.366;8.530;2024-02-15T03:10:34;7.83;;;5.20;;
5801;SDS011;2927;49.366;8.530;2024-02-15T03:13:00;11.17;;;5.17;;
5801;SDS011;2927;49.366;8.530;2024-02-15T03:15:25;6.07;;;4.30;;
5801;SDS011;2927;49.366;8.530;2024-02-15T03:17:51;4.77;;;4.43;;
5801;SDS011;2927;49.366;8.530;2024-02-15T03:20:16;7.07;;;4.50;;
5801;SDS011;2927;49.366;8.530;2024-02-15T03:22:50;6.40;;;4.73;;
5801;SDS011;2927;49.366;8.530;2024-02-15T03:25:18;4.20;;;3.67;;
5801;SDS011;2927;49.366;8.530;2024-02-15T03:27:43;5.67;;;4.50;;
5801;SDS011;2927;49.366;8.530;2024-02-15T03:30:09;7.33;;;4.53;;
5801;SDS011;2927;49.366;8.530;2024-02-15T03:32:35;3.60;;;3.30;;
5801;SDS011;2927;49.366;8.530;2024-02-15T03:35:02;7.87;;;3.97;;
5801;SDS011;2927;49.366;8.530;2024-02-15T03:37:28;4.20;;;3.80;;
5801;SDS011;2927;49.366;8.530;2024-02-15T03:39:54;4.50;;;3.10;;
5801;SDS011;2927;49.366;8.530;2024-02-15T03:42:20;7.20;;;3.43;;
5801;SDS011;2927;49.366;8.530;2024-02-15T03:44:45;3.57;;;2.80;;
5801;SDS011;2927;49.366;8.530;2024-02-15T03:47:12;3.27;;;2.90;;
5801;SDS011;2927;49.366;8.530;2024-02-15T03:49:39;7.80;;;3.77;;
5801;SDS011;2927;49.366;8.530;2024-02-15T03:52:07;3.80;;;3.40;;
5801;SDS011;2927;49.366;8.530;2024-02-15T03:54:35;5.07;;;3.93;;
5801;SDS011;2927;49.366;8.530;2024-02-15T03:57:01;5.20;;;3.27;;
5801;SDS011;2927;49.366;8.530;2024-02-15T03:59:26;5.23;;;3.27;;
5801;SDS011;2927;49.366;8.530;2024-02-15T04:01:52;5.93;;;3.90;;
5801;SDS011;2927;49.366;8.530;2024-02-15T04:04:18;5.00;;;3.03;;
5801;SDS011;2927;49.366;8.530;2024-02-15T04:06:46;13.00;;;2.70;;
5801;SDS011;2927;49.366;8.530;2024-02-15T04:09:12;4.00;;;3.10;;
5801;SDS011;2927;49.366;8.530;2024-02-15T04:11:37;5.63;;;3.00;;
5801;SDS011;2927;49.366;8.530;2024-02-15T04:14:03;4.00;;;2.40;;
5801;SDS011;2927;49.366;8.530;2024-02-15T04:16:29;2.90;;;2.60;;
5801;SDS011;2927;49.366;8.530;2024-02-15T04:18:56;3.90;;;3.40;;
5801;SDS011;2927;49.366;8.530;2024-02-15T04:21:24;5.63;;;2.80;;
5801;SDS011;2927;49.366;8.530;2024-02-15T04:23:52;4.40;;;3.17;;
5801;SDS011;2927;49.366;8.530;2024-02-15T04:26:19;6.43;;;2.80;;
5801;SDS011;2927;49.366;8.530;2024-02-15T04:28:45;2.57;;;2.37;;
5801;SDS011;2927;49.366;8.530;2024-02-15T04:31:17;2.40;;;2.23;;
5801;SDS011;2927;49.366;8.530;2024-02-15T04:33:43;4.07;;;2.73;;
5801;SDS011;2927;49.366;8.530;2024-02-15T04:36:09;8.07;;;2.87;;
5801;SDS011;2927;49.366;8.530;2024-02-15T04:38:34;6.73;;;3.20;;
5801;SDS011;2927;49.366;8.530;2024-02-15T04:41:01;5.17;;;3.70;;
5801;SDS011;2927;49.366;8.530;2024-02-15T04:43:28;3.40;;;3.10;;
5801;SDS011;2927;49.366;8.530;2024-02-15T04:45:54;3.67;;;3.00;;
5801;SDS011;2927;49.366;8.530;2024-02-15T04:48:20;4.20;;;3.00;;
5801;SDS011;2927;49.366;8.530;2024-02-15T04:50:46;10.77;;;3.00;;
5801;SDS011;2927;49.366;8.530;2024-02-15T04:53:12;3.77;;;3.43;;
5801;SDS011;2927;49.366;8.530;2024-02-15T04:55:37;8.50;;;3.47;;
5801;SDS011;2927;49.366;8.530;2024-02-15T04:58:03;5.17;;;3.00;;
5801;SDS011;2927;49.366;8.530;2024-02-15T05:00:29;6.23;;;3.60;;
5801;SDS011;2927;49.366;8.530;2024-02-15T05:02:55;5.77;;;3.53;;
5801;SDS011;2927;49.366;8.530;2024-02-15T05:05:20;8.63;;;4.03;;
5801;SDS011;2927;49.366;8.530;2024-02-15T05:07:46;10.20;;;6.63;;
5801;SDS011;2927;49.366;8.530;2024-02-15T05:10:14;10.60;;;6.90;;
5801;SDS011;2927;49.366;8.530;2024-02-15T05:12:41;7.27;;;5.87;;
5801;SDS011;2927;49.366;8.530;2024-02-15T05:15:07;13.53;;;8.70;;
5801;SDS011;2927;49.366;8.530;2024-02-15T05:17:37;5.93;;;4.30;;
5801;SDS011;2927;49.366;8.530;2024-02-15T05:20:06;6.40;;;3.53;;
5801;SDS011;2927;49.366;8.530;2024-02-15T05:22:36;8.63;;;4.70;;
5801;SDS011;2927;49.366;8.530;2024-02-15T05:25:03;6.40;;;4.40;;
5801;SDS011;2927;49.366;8.530;2024-02-15T05:27:30;5.30;;;2.63;;
5801;SDS011;2927;49.366;8.530;2024-02-15T05:29:56;4.93;;;3.30;;
5801;SDS011;2927;49.366;8.530;2024-02-15T05:32:22;4.60;;;3.33;;
5801;SDS011;2927;49.366;8.530;2024-02-15T05:34:47;8.63;;;3.27;;
5801;SDS011;2927;49.366;8.530;2024-02-15T05:37:16;4.50;;;2.57;;
5801;SDS011;2927;49.366;8.530;2024-02-15T05:39:42;3.57;;;2.23;;
5801;SDS011;2927;49.366;8.530;2024-02-15T05:42:08;3.80;;;2.37;;
5801;SDS011;2927;49.366;8.530;2024-02-15T05:44:35;8.27;;;2.70;;
5801;SDS011;2927;49.366;8.530;2024-02-15T05:47:01;5.40;;;2.67;;
5801;SDS011;2927;49.366;8.530;2024-02-15T05:49:26;7.47;;;3.43;;
5801;SDS011;2927;49.366;8.530;2024-02-15T05:51:52;3.00;;;2.50;;
5801;SDS011;2927;49.366;8.530;2024-02-15T05:54:18;3.53;;;1.97;;
5801;SDS011;2927;49.366;8.530;2024-02-15T05:56:44;4.73;;;2.60;;
5801;SDS011;2927;49.366;8.530;2024-02-15T05:59:10;4.30;;;2.80;;
5801;SDS011;2927;49.366;8.530;2024-02-15T06:01:39;3.87;;;3.10;;
5801;SDS011;2927;49.366;8.530;2024-02-15T06:04:05;6.73;;;3.30;;
5801;SDS011;2927;49.366;8.530;2024-02-15T06:06:36;4.50;;;3.13;;
5801;SDS011;2927;49.366;8.530;2024-02-15T06:09:03;4.63;;;2.33;;
5801;SDS011;2927;49.366;8.530;2024-02-15T06:11:29;5.80;;;3.10;;
5801;SDS011;2927;49.366;8.530;2024-02-15T06:13:55;5.80;;;3.47;;
5801;SDS011;2927;49.366;8.530;2024-02-15T06:16:20;5.70;;;3.50;;
5801;SDS011;2927;49.366;8.530;2024-02-15T06:18:46;11.70;;;3.50;;
5801;SDS011;2927;49.366;8.530;2024-02-15T06:21:13;4.37;;;3.10;;
5801;SDS011;2927;49.366;8.530;2024-02-15T06:23:38;6.70;;;3.07;;
5801;SDS011;2927;49.366;8.530;2024-02-15T06:26:04;8.33;;;3.60;;
5801;SDS011;2927;49.366;8.530;2024-02-15T06:28:30;3.03;;;2.80;;
5801;SDS011;2927;49.366;8.530;2024-02-15T06:31:14;6.50;;;3.70;;
5801;SDS011;2927;49.366;8.530;2024-02-15T06:33:58;8.27;;;4.37;;
5801;SDS011;2927;49.366;8.530;2024-02-15T06:39:29;3.87;;;3.37;;
5801;SDS011;2927;49.366;8.530;2024-02-15T06:42:13;4.90;;;3.77;;
5801;SDS011;2927;49.366;8.530;2024-02-15T06:44:44;4.33;;;3.20;;
5801;SDS011;2927;49.366;8.530;2024-02-15T06:47:11;6.27;;;2.93;;
5801;SDS011;2927;49.366;8.530;2024-02-15T06:49:38;4.10;;;2.70;;
5801;SDS011;2927;49.366;8.530;2024-02-15T06:52:08;3.97;;;2.90;;
5801;SDS011;2927;49.366;8.530;2024-02-15T06:54:34;5.37;;;2.30;;
5801;SDS011;2927;49.366;8.530;2024-02-15T06:57:03;3.90;;;1.70;;
5801;SDS011;2927;49.366;8.530;2024-02-15T06:59:29;2.80;;;2.60;;
5801;SDS011;2927;49.366;8.530;2024-02-15T07:01:57;3.90;;;2.50;;
5801;SDS011;2927;49.366;8.530;2024-02-15T07:04:26;4.70;;;2.60;;
5801;SDS011;2927;49.366;8.530;2024-02-15T07:06:52;5.47;;;2.97;;
5801;SDS011;2927;49.366;8.530;2024-02-15T07:09:19;8.73;;;2.10;;
5801;SDS011;2927;49.366;8.530;2024-02-15T07:11:47;4.47;;;2.80;;
5801;SDS011;2927;49.366;8.530;2024-02-15T07:14:13;7.10;;;2.70;;
5801;SDS011;2927;49.366;8.530;2024-02-15T07:16:40;4.50;;;2.87;;
5801;SDS011;2927;49.366;8.530;2024-02-15T07:19:09;4.83;;;2.40;;
5801;SDS011;2927;49.366;8.530;2024-02-15T07:21:35;9.83;;;3.07;;
5801;SDS011;2927;49.366;8.530;2024-02-15T07:24:01;4.10;;;2.60;;
5801;SDS011;2927;49.366;8.530;2024-02-15T07:26:27;7.13;;;2.30;;
5801;SDS011;2927;49.366;8.530;2024-02-15T07:28:55;9.53;;;5.63;;
5801;SDS011;2927;49.366;8.530;2024-02-15T07:31:22;7.30;;;4.63;;
5801;SDS011;2927;49.366;8.530;2024-02-15T07:33:52;9.40;;;4.13;;
5801;SDS011;2927;49.366;8.530;2024-02-15T07:36:21;8.13;;;4.90;;
5801;SDS011;2927;49.366;8.530;2024-02-15T07:38:48;7.70;;;6.00;;
5801;SDS011;2927;49.366;8.530;2024-02-15T07:41:15;10.23;;;7.50;;
5801;SDS011;2927;49.366;8.530;2024-02-15T07:43:50;9.60;;;6.00;;
5801;SDS011;2927;49.366;8.530;2024-02-15T07:46:20;6.83;;;3.90;;
5801;SDS011;2927;49.366;8.530;2024-02-15T07:48:46;3.70;;;2.60;;
5801;SDS011;2927;49.366;8.530;2024-02-15T07:51:12;3.17;;;2.87;;
5801;SDS011;2927;49.366;8.530;2024-02-15T07:53:40;7.97;;;3.77;;
5801;SDS011;2927;49.366;8.530;2024-02-15T07:56:06;5.53;;;3.50;;
5801;SDS011;2927;49.366;8.530;2024-02-15T07:58:31;4.77;;;2.90;;
5801;SDS011;2927;49.366;8.530;2024-02-15T08:00:57;4.00;;;2.53;;
5801;SDS011;2927;49.366;8.530;2024-02-15T08:03:24;5.63;;;3.27;;
5801;SDS011;2927;49.366;8.530;2024-02-15T08:05:51;4.50;;;2.40;;
5801;SDS011;2927;49.366;8.530;2024-02-15T08:08:17;4.50;;;2.30;;
5801;SDS011;2927;49.366;8.530;2024-02-15T08:10:43;10.97;;;2.60;;
5801;SDS011;2927;49.366;8.530;2024-02-15T08:13:10;7.20;;;2.10;;
5801;SDS011;2927;49.366;8.530;2024-02-15T08:15:35;2.00;;;1.80;;
5801;SDS011;2927;49.366;8.530;2024-02-15T08:18:01;2.97;;;1.83;;
5801;SDS011;2927;49.366;8.530;2024-02-15T08:20:30;1.90;;;1.53;;
5801;SDS011;2927;49.366;8.530;2024-02-15T08:22:56;2.90;;;2.10;;
5801;SDS011;2927;49.366;8.530;2024-02-15T08:25:24;2.03;;;1.80;;
5801;SDS011;2927;49.366;8.530;2024-02-15T08:27:52;4.63;;;1.87;;
5801;SDS011;2927;49.366;8.530;2024-02-15T08:30:17;4.83;;;1.80;;
5801;SDS011;2927;49.366;8.530;2024-02-15T08:32:44;3.33;;;1.73;;
5801;SDS011;2927;49.366;8.530;2024-02-15T08:35:13;1.90;;;1.80;;
5801;SDS011;2927;49.366;8.530;2024-02-15T08:37:39;7.37;;;1.60;;
5801;SDS011;2927;49.366;8.530;2024-02-15T08:40:07;4.20;;;1.67;;
5801;SDS011;2927;49.366;8.530;2024-02-15T08:42:38;3.10;;;1.60;;
5801;SDS011;2927;49.366;8.530;2024-02-15T08:45:08;2.60;;;1.33;;
5801;SDS011;2927;49.366;8.530;2024-02-15T08:47:37;7.17;;;1.43;;
5801;SDS011;2927;49.366;8.530;2024-02-15T08:50:04;2.20;;;1.70;;
5801;SDS011;2927;49.366;8.530;2024-02-15T08:52:30;4.63;;;1.93;;
5801;SDS011;2927;49.366;8.530;2024-02-15T08:54:56;1.90;;;1.70;;
5801;SDS011;2927;49.366;8.530;2024-02-15T08:57:24;5.03;;;2.33;;
5801;SDS011;2927;49.366;8.530;2024-02-15T08:59:49;4.13;;;2.00;;
5801;SDS011;2927;49.366;8.530;2024-02-15T09:02:16;4.50;;;1.30;;
5801;SDS011;2927;49.366;8.530;2024-02-15T09:04:42;2.10;;;1.60;;
5801;SDS011;2927;49.366;8.530;2024-02-15T09:07:08;0.93;;;0.80;;
5801;SDS011;2927;49.366;8.530;2024-02-15T09:09:34;1.10;;;1.00;;
5801;SDS011;2927;49.366;8.530;2024-02-15T09:12:01;1.17;;;1.10;;
5801;SDS011;2927;49.366;8.530;2024-02-15T09:14:34;1.27;;;0.97;;
5801;SDS011;2927;49.366;8.530;2024-02-15T09:17:01;2.50;;;1.40;;
5801;SDS011;2927;49.366;8.530;2024-02-15T09:19:32;1.90;;;1.10;;
5801;SDS011;2927;49.366;8.530;2024-02-15T09:21:58;3.10;;;1.50;;
5801;SDS011;2927;49.366;8.530;2024-02-15T09:24:23;5.20;;;2.53;;
5801;SDS011;2927;49.366;8.530;2024-02-15T09:26:50;3.20;;;1.57;;
5801;SDS011;2927;49.366;8.530;2024-02-15T09:29:17;2.40;;;1.27;;
5801;SDS011;2927;49.366;8.530;2024-02-15T09:31:45;2.40;;;1.50;;
5801;SDS011;2927;49.366;8.530;2024-02-15T09:34:12;3.43;;;1.30;;
5801;SDS011;2927;49.366;8.530;2024-02-15T09:36:38;3.47;;;1.57;;
5801;SDS011;2927;49.366;8.530;2024-02-15T09:39:04;5.20;;;1.40;;
5801;SDS011;2927;49.366;8.530;2024-02-15T09:41:31;1.37;;;1.20;;
5801;SDS011;2927;49.366;8.530;2024-02-15T09:43:58;1.40;;;1.00;;
5801;SDS011;2927;49.366;8.530;2024-02-15T09:46:26;2.10;;;1.47;;
5801;SDS011;2927;49.366;8.530;2024-02-15T09:48:52;1.70;;;1.20;;
5801;SDS011;2927;49.366;8.530;2024-02-15T09:51:23;3.90;;;1.43;;
5801;SDS011;2927;49.366;8.530;2024-02-15T09:53:52;2.83;;;2.00;;
5801;SDS011;2927;49.366;8.530;2024-02-15T09:56:18;2.20;;;1.30;;
5801;SDS011;2927;49.366;8.530;2024-02-15T09:58:49;2.73;;;1.40;;
5801;SDS011;2927;49.366;8.530;2024-02-15T10:01:15;2.40;;;1.20;;
5801;SDS011;2927;49.366;8.530;2024-02-15T10:03:44;2.57;;;1.30;;
5801;SDS011;2927;49.366;8.530;2024-02-15T10:06:13;1.83;;;1.10;;
5801;SDS011;2927;49.366;8.530;2024-02-15T10:08:39;3.13;;;1.70;;
5801;SDS011;2927;49.366;8.530;2024-02-15T10:11:05;2.13;;;0.77;;
5801;SDS011;2927;49.366;8.530;2024-02-15T10:13:33;6.00;;;1.00;;
5801;SDS011;2927;49.366;8.530;2024-02-15T10:15:59;2.03;;;1.03;;
5801;SDS011;2927;49.366;8.530;2024-02-15T10:18:24;0.93;;;0.80;;
5801;SDS011;2927;49.366;8.530;2024-02-15T10:20:59;8.80;;;1.03;;
5801;SDS011;2927;49.366;8.530;2024-02-15T10:23:25;0.97;;;0.87;;
5801;SDS011;2927;49.366;8.530;2024-02-15T10:25:51;2.00;;;0.80;;
5801;SDS011;2927;49.366;8.530;2024-02-15T10:28:20;3.87;;;1.27;;
5801;SDS011;2927;49.366;8.530;2024-02-15T10:30:48;3.20;;;1.00;;
5801;SDS011;2927;49.366;8.530;2024-02-15T10:33:33;4.30;;;1.10;;
5801;SDS011;2927;49.366;8.530;2024-02-15T10:36:10;5.87;;;1.67;;
5801;SDS011;2927;49.366;8.530;2024-02-15T10:38:36;2.07;;;0.77;;
5801;SDS011;2927;49.366;8.530;2024-02-15T10:41:02;0.70;;;0.70;;
5801;SDS011;2927;49.366;8.530;2024-02-15T10:43:35;4.37;;;0.70;;
5801;SDS011;2927;49.366;8.530;2024-02-15T10:46:04;2.40;;;1.00;;
5801;SDS011;2927;49.366;8.530;2024-02-15T10:48:32;0.97;;;0.97;;
5801;SDS011;2927;49.366;8.530;2024-02-15T10:50:59;1.20;;;0.90;;
5801;SDS011;2927;49.366;8.530;2024-02-15T10:53:27;1.43;;;1.03;;
5801;SDS011;2927;49.366;8.530;2024-02-15T10:56:03;4.70;;;0.80;;
5801;SDS011;2927;49.366;8.530;2024-02-15T10:58:44;4.90;;;1.73;;
5801;SDS011;2927;49.366;8.530;2024-02-15T11:01:12;0.93;;;0.63;;
5801;SDS011;2927;49.366;8.530;2024-02-15T11:03:51;0.70;;;0.70;;
5801;SDS011;2927;49.366;8.530;2024-02-15T11:06:23;0.90;;;0.90;;
5801;SDS011;2927;49.366;8.530;2024-02-15T11:08:51;3.80;;;1.03;;
5801;SDS011;2927;49.366;8.530;2024-02-15T11:11:17;1.27;;;1.00;;
5801;SDS011;2927;49.366;8.530;2024-02-15T11:13:44;3.33;;;1.07;;
5801;SDS011;2927;49.366;8.530;2024-02-15T11:16:38;2.87;;;0.70;;
5801;SDS011;2927;49.366;8.530;2024-02-15T11:19:08;2.00;;;1.03;;
5801;SDS011;2927;49.366;8.530;2024-02-15T11:21:54;1.13;;;1.07;;
5801;SDS011;2927;49.366;8.530;2024-02-15T11:24:28;2.07;;;1.13;;
5801;SDS011;2927;49.366;8.530;2024-02-15T11:26:57;5.70;;;1.20;;
5801;SDS011;2927;49.366;8.530;2024-02-15T11:32:47;1.83;;;0.87;;
5801;SDS011;2927;49.366;8.530;2024-02-15T11:35:25;4.90;;;0.90;;
5801;SDS011;2927;49.366;8.530;2024-02-15T11:37:57;3.73;;;1.30;;
5801;SDS011;2927;49.366;8.530;2024-02-15T11:40:28;6.30;;;1.17;;
5801;SDS011;2927;49.366;8.530;2024-02-15T11:46:08;3.03;;;1.47;;
5801;SDS011;2927;49.366;8.530;2024-02-15T11:48:38;1.73;;;0.97;;
5801;SDS011;2927;49.366;8.530;2024-02-15T11:51:04;4.07;;;1.83;;
5801;SDS011;2927;49.366;8.530;2024-02-15T11:53:31;1.37;;;0.90;;
5801;SDS011;2927;49.366;8.530;2024-02-15T11:56:00;3.07;;;1.70;;
5801;SDS011;2927;49.366;8.530;2024-02-15T11:58:27;1.53;;;1.00;;
5801;SDS011;2927;49.366;8.530;2024-02-15T12:01:11;7.70;;;1.70;;
5801;SDS011;2927;49.366;8.530;2024-02-15T12:03:55;2.33;;;1.33;;
5801;SDS011;2927;49.366;8.530;2024-02-15T12:06:39;4.77;;;1.40;;
5801;SDS011;2927;49.366;8.530;2024-02-15T12:09:24;2.60;;;1.43;;
5801;SDS011;2927;49.366;8.530;2024-02-15T12:12:11;1.93;;;1.33;;
5801;SDS011;2927;49.366;8.530;2024-02-15T12:15:01;2.57;;;1.30;;
5801;SDS011;2927;49.366;8.530;2024-02-15T12:17:46;1.67;;;1.10;;
5801;SDS011;2927;49.366;8.530;2024-02-15T12:20:30;2.03;;;1.03;;
5801;SDS011;2927;49.366;8.530;2024-02-15T12:22:57;2.30;;;1.10;;
5801;SDS011;2927;49.366;8.530;2024-02-15T12:25:26;8.73;;;1.20;;
5801;SDS011;2927;49.366;8.530;2024-02-15T12:27:53;1.90;;;0.90;;
5801;SDS011;2927;49.366;8.530;2024-02-15T12:30:19;2.43;;;1.00;;
5801;SDS011;2927;49.366;8.530;2024-02-15T12:32:47;2.20;;;0.90;;
5801;SDS011;2927;49.366;8.530;2024-02-15T12:35:13;3.20;;;1.07;;
5801;SDS011;2927;49.366;8.530;2024-02-15T12:40:36;2.10;;;0.90;;
5801;SDS011;2927;49.366;8.530;2024-02-15T12:43:07;4.80;;;0.80;;
5801;SDS011;2927;49.366;8.530;2024-02-15T12:45:38;2.33;;;0.50;;
5801;SDS011;2927;49.366;8.530;2024-02-15T12:48:05;2.50;;;0.83;;
5801;SDS011;2927;49.366;8.530;2024-02-15T12:50:32;2.20;;;0.80;;
5801;SDS011;2927;49.366;8.530;2024-02-15T12:52:59;1.93;;;0.50;;
5801;SDS011;2927;49.366;8.530;2024-02-15T12:57:59;0.50;;;0.50;;
5801;SDS011;2927;49.366;8.530;2024-02-15T13:00:29;1.27;;;0.50;;
5801;SDS011;2927;49.366;8.530;2024-02-15T13:03:01;2.50;;;0.60;;
5801;SDS011;2927;49.366;8.530;2024-02-15T13:05:28;1.00;;;0.47;;
5801;SDS011;2927;49.366;8.530;2024-02-15T13:07:55;2.13;;;0.63;;
5801;SDS011;2927;49.366;8.530;2024-02-15T13:10:27;1.23;;;0.63;;
5801;SDS011;2927;49.366;8.530;2024-02-15T13:12:54;1.60;;;0.80;;
5801;SDS011;2927;49.366;8.530;2024-02-15T13:15:21;1.53;;;0.80;;
5801;SDS011;2927;49.366;8.530;2024-02-15T13:17:51;1.97;;;0.53;;
5801;SDS011;2927;49.366;8.530;2024-02-15T13:20:18;0.80;;;0.80;;
5801;SDS011;2927;49.366;8.530;2024-02-15T13:22:52;3.80;;;1.97;;
5801;SDS011;2927;49.366;8.530;2024-02-15T13:25:21;2.30;;;1.20;;
5801;SDS011;2927;49.366;8.530;2024-02-15T13:27:47;2.30;;;0.67;;
5801;SDS011;2927;49.366;8.530;2024-02-15T13:30:13;2.20;;;1.07;;
5801;SDS011;2927;49.366;8.530;2024-02-15T13:32:39;2.20;;;0.57;;
5801;SDS011;2927;49.366;8.530;2024-02-15T13:35:08;2.77;;;0.80;;
5801;SDS011;2927;49.366;8.530;2024-02-15T13:40:09;13.10;;;0.97;;
5801;SDS011;2927;49.366;8.530;2024-02-15T13:42:40;1.63;;;0.57;;
5801;SDS011;2927;49.366;8.530;2024-02-15T13:45:11;2.37;;;0.63;;
5801;SDS011;2927;49.366;8.530;2024-02-15T13:47:38;2.73;;;1.67;;
5801;SDS011;2927;49.366;8.530;2024-02-15T13:50:04;0.80;;;0.40;;
5801;SDS011;2927;49.366;8.530;2024-02-15T13:52:30;3.67;;;0.63;;
5801;SDS011;2927;49.366;8.530;2024-02-15T13:54:56;1.13;;;0.63;;
5801;SDS011;2927;49.366;8.530;2024-02-15T13:57:24;1.13;;;0.70;;
5801;SDS011;2927;49.366;8.530;2024-02-15T13:59:51;3.37;;;1.03;;
5801;SDS011;2927;49.366;8.530;2024-02-15T14:02:16;4.90;;;0.80;;
5801;SDS011;2927;49.366;8.530;2024-02-15T14:04:43;1.77;;;0.60;;
5801;SDS011;2927;49.366;8.530;2024-02-15T14:07:09;2.87;;;0.50;;
5801;SDS011;2927;49.366;8.530;2024-02-15T14:09:34;3.30;;;0.70;;
5801;SDS011;2927;49.366;8.530;2024-02-15T14:12:00;1.13;;;0.40;;
5801;SDS011;2927;49.366;8.530;2024-02-15T14:14:29;1.80;;;1.17;;
5801;SDS011;2927;49.366;8.530;2024-02-15T14:16:55;0.90;;;0.40;;
5801;SDS011;2927;49.366;8.530;2024-02-15T14:19:20;0.50;;;0.50;;
5801;SDS011;2927;49.366;8.530;2024-02-15T14:21:46;3.60;;;0.60;;
5801;SDS011;2927;49.366;8.530;2024-02-15T14:24:12;0.50;;;0.43;;
5801;SDS011;2927;49.366;8.530;2024-02-15T14:26:38;0.50;;;0.50;;
5801;SDS011;2927;49.366;8.530;2024-02-15T14:29:04;3.03;;;0.50;;
5801;SDS011;2927;49.366;8.530;2024-02-15T14:31:30;0.93;;;0.70;;
5801;SDS011;2927;49.366;8.530;2024-02-15T14:34:14;2.60;;;0.60;;
5801;SDS011;2927;49.366;8.530;2024-02-15T14:36:43;4.90;;;0.63;;
5801;SDS011;2927;49.366;8.530;2024-02-15T14:39:08;2.27;;;0.80;;
5801;SDS011;2927;49.366;8.530;2024-02-15T14:41:35;6.17;;;0.73;;
5801;SDS011;2927;49.366;8.530;2024-02-15T14:44:00;1.13;;;0.40;;
5801;SDS011;2927;49.366;8.530;2024-02-15T14:46:26;2.20;;;0.73;;
5801;SDS011;2927;49.366;8.530;2024-02-15T14:48:52;3.63;;;0.80;;
5801;SDS011;2927;49.366;8.530;2024-02-15T14:51:19;3.20;;;0.90;;
5801;SDS011;2927;49.366;8.530;2024-02-15T14:53:45;1.90;;;0.80;;
5801;SDS011;2927;49.366;8.530;2024-02-15T14:56:10;1.33;;;0.70;;
5801;SDS011;2927;49.366;8.530;2024-02-15T14:58:36;1.53;;;0.67;;
5801;SDS011;2927;49.366;8.530;2024-02-15T15:01:02;0.83;;;0.60;;
5801;SDS011;2927;49.366;8.530;2024-02-15T15:03:30;5.43;;;1.20;;
5801;SDS011;2927;49.366;8.530;2024-02-15T15:06:02;1.13;;;0.80;;
5801;SDS011;2927;49.366;8.530;2024-02-15T15:08:47;0.50;;;0.40;;
5801;SDS011;2927;49.366;8.530;2024-02-15T15:11:31;3.90;;;0.97;;
5801;SDS011;2927;49.366;8.530;2024-02-15T15:14:15;2.67;;;0.90;;
5801;SDS011;2927;49.366;8.530;2024-02-15T15:16:42;2.93;;;1.30;;
5801;SDS011;2927;49.366;8.530;2024-02-15T15:19:08;3.80;;;1.07;;
5801;SDS011;2927;49.366;8.530;2024-02-15T15:21:35;2.50;;;1.30;;
5801;SDS011;2927;49.366;8.530;2024-02-15T15:24:00;2.57;;;0.63;;
5801;SDS011;2927;49.366;8.530;2024-02-15T15:26:26;2.87;;;1.83;;
5801;SDS011;2927;49.366;8.530;2024-02-15T15:28:51;1.93;;;0.97;;
5801;SDS011;2927;49.366;8.530;2024-02-15T15:31:17;3.83;;;1.70;;
5801;SDS011;2927;49.366;8.530;2024-02-15T15:33:44;8.00;;;2.07;;
5801;SDS011;2927;49.366;8.530;2024-02-15T15:36:10;2.10;;;1.00;;